Time;durP1;ratioP1;P1;durP2;ratioP2;P2;SDS_P1;SDS_P2;PMS_P1;PMS_P2;Temp;Humidity;BMP_temperature;BMP_pressure;BME280_temperature;BME280_humidity;BME280_pressure;Samples;Min_cycle;Max_cycle;Signal;HPM_P1;HPM_P2
2022/12/27 00:00:54;;;;;;;8.18;2.05;;;8.30;54.30;;;;;;5021457;28;20049;-50
2022/12/27 00:03:21;;;;;;;6.45;1.88;;;8.40;54.30;;;;;;5024188;28;20058;-44
2022/12/27 00:05:48;;;;;;;8.57;1.65;;;8.40;54.20;;;;;;5024237;28;20520;-47
2022/12/27 00:08:16;;;;;;;8.30;1.73;;;8.30;54.10;;;;;;5023406;28;20057;-47
2022/12/27 00:10:44;;;;;;;5.22;1.45;;;8.40;54.10;;;;;;5023510;28;20057;-47
2022/12/27 00:13:11;;;;;;;5.53;1.52;;;8.40;54.10;;;;;;5023589;28;20539;-48
2022/12/27 00:15:39;;;;;;;14.23;2.17;;;8.30;54.00;;;;;;5022146;28;20054;-49
2022/12/27 00:18:06;;;;;;;10.98;2.13;;;8.40;54.10;;;;;;5023690;28;20068;-44
2022/12/27 00:20:33;;;;;;;10.43;1.90;;;8.40;54.10;;;;;;5023830;28;20065;-51
2022/12/27 00:23:01;;;;;;;5.20;1.90;;;8.30;54.10;;;;;;5023191;28;20057;-45
2022/12/27 00:25:28;;;;;;;8.15;1.60;;;8.30;54.10;;;;;;5021137;28;20049;-46
2022/12/27 00:27:57;;;;;;;8.95;1.80;;;8.30;54.10;;;;;;5023157;28;20046;-44
2022/12/27 00:30:24;;;;;;;8.63;1.77;;;8.30;54.20;;;;;;5021588;28;20049;-47
2022/12/27 00:32:51;;;;;;;7.03;1.60;;;8.30;54.10;;;;;;5023385;28;20093;-49
2022/12/27 00:35:18;;;;;;;6.32;1.50;;;8.30;54.10;;;;;;5023332;28;21522;-51
2022/12/27 00:37:46;;;;;;;7.80;1.80;;;8.30;54.10;;;;;;5023615;28;20057;-48
2022/12/27 00:40:13;;;;;;;8.23;1.80;;;8.30;54.10;;;;;;5022702;28;20061;-49
2022/12/27 00:42:40;;;;;;;8.43;1.80;;;8.30;54.10;;;;;;5024310;28;20433;-49
2022/12/27 00:45:10;;;;;;;8.90;1.60;;;8.30;54.10;;;;;;5018895;28;20068;-45
2022/12/27 00:47:37;;;;;;;6.90;1.83;;;8.30;54.20;;;;;;5022631;28;20072;-46
2022/12/27 00:50:05;;;;;;;6.63;1.90;;;8.20;54.20;;;;;;5023128;28;20057;-47
2022/12/27 00:52:33;;;;;;;7.45;1.80;;;8.20;54.20;;;;;;5022907;28;20042;-47
2022/12/27 00:55:00;;;;;;;5.78;1.60;;;8.20;54.20;;;;;;5022207;28;20060;-44
2022/12/27 00:57:27;;;;;;;6.70;2.53;;;8.20;54.30;;;;;;5023453;28;20061;-49
2022/12/27 00:59:54;;;;;;;8.50;1.90;;;8.20;54.30;;;;;;5020751;28;20053;-47
2022/12/27 01:02:24;;;;;;;8.18;1.65;;;8.20;54.40;;;;;;5022418;28;20056;-47
2022/12/27 01:04:53;;;;;;;13.15;2.17;;;8.20;54.40;;;;;;5022378;28;20052;-50
2022/12/27 01:07:20;;;;;;;8.20;2.17;;;8.20;54.50;;;;;;5022936;28;20069;-49
2022/12/27 01:09:47;;;;;;;12.52;2.10;;;8.10;54.60;;;;;;5022375;28;20577;-47
2022/12/27 01:12:16;;;;;;;7.93;1.83;;;8.10;54.80;;;;;;5023282;28;20132;-47
2022/12/27 01:14:43;;;;;;;8.45;1.92;;;8.20;55.00;;;;;;5019648;28;20473;-50
2022/12/27 01:17:11;;;;;;;8.65;1.50;;;8.10;54.90;;;;;;5021968;28;20057;-46
2022/12/27 01:19:39;;;;;;;7.88;1.75;;;8.10;55.00;;;;;;5022151;28;20056;-47
2022/12/27 01:22:07;;;;;;;4.65;1.30;;;8.10;55.50;;;;;;5023465;28;20514;-48
2022/12/27 01:24:34;;;;;;;10.60;1.75;;;8.10;55.10;;;;;;5020836;28;20064;-47
2022/12/27 01:27:01;;;;;;;9.48;1.60;;;8.10;55.10;;;;;;5022358;28;20065;-43
2022/12/27 01:29:28;;;;;;;5.95;1.65;;;8.10;55.10;;;;;;5019416;28;20053;-46
2022/12/27 01:31:56;;;;;;;6.53;1.80;;;8.10;55.10;;;;;;5021954;28;20439;-44
2022/12/27 01:34:23;;;;;;;5.57;1.65;;;8.10;55.20;;;;;;5019415;28;20049;-44
2022/12/27 01:36:51;;;;;;;6.80;1.42;;;8.20;55.20;;;;;;5022595;28;20049;-48
2022/12/27 01:39:19;;;;;;;9.63;1.70;;;8.20;55.20;;;;;;5021277;28;20054;-45
2022/12/27 01:44:53;;;;;;;5.00;1.58;;;8.20;55.20;;;;;;5023150;28;20052;-46
2022/12/27 01:47:40;;;;;;;4.20;1.23;;;8.20;55.20;;;;;;5021656;28;20067;-49
2022/12/27 01:50:12;;;;;;;6.90;1.40;;;8.20;55.20;;;;;;5022399;28;20064;-45
2022/12/27 01:52:45;;;;;;;9.00;1.42;;;8.20;55.20;;;;;;5021745;28;20049;-46
2022/12/27 01:55:18;;;;;;;11.73;2.22;;;8.20;55.20;;;;;;5018713;28;20060;-47
2022/12/27 01:57:46;;;;;;;6.72;1.70;;;8.20;55.20;;;;;;5022945;28;20408;-44
2022/12/27 02:00:17;;;;;;;5.45;1.33;;;8.20;55.30;;;;;;5019295;28;20053;-50
2022/12/27 02:02:44;;;;;;;13.90;1.73;;;8.20;55.40;;;;;;5022095;28;20057;-46
2022/12/27 02:05:14;;;;;;;10.07;1.88;;;8.20;55.50;;;;;;5017442;28;20396;-48
2022/12/27 02:07:55;;;;;;;8.68;1.60;;;8.20;55.50;;;;;;5017585;28;20053;-47
2022/12/27 02:10:23;;;;;;;9.80;1.65;;;8.20;55.50;;;;;;5020803;28;20053;-46
2022/12/27 02:12:51;;;;;;;6.35;1.25;;;8.20;55.50;;;;;;5022024;28;20046;-48
2022/12/27 02:15:18;;;;;;;12.48;1.60;;;8.20;55.50;;;;;;5018360;28;20405;-47
2022/12/27 02:17:45;;;;;;;11.35;2.53;;;8.30;55.50;;;;;;5021966;28;20050;-49
2022/12/27 02:20:16;;;;;;;6.65;1.15;;;8.30;55.50;;;;;;5022041;28;20092;-46
2022/12/27 02:26:22;;;;;;;10.00;1.42;;;8.30;55.50;;;;;;5027681;28;20517;-49
2022/12/27 02:29:14;;;;;;;4.20;1.20;;;8.30;55.40;;;;;;5021706;28;20529;-48
2022/12/27 02:31:46;;;;;;;8.20;1.27;;;8.30;55.40;;;;;;5019144;28;20053;-46
2022/12/27 02:34:20;;;;;;;6.78;1.55;;;8.30;55.30;;;;;;5021978;28;20061;-49
2022/12/27 02:36:49;;;;;;;8.80;1.33;;;8.30;55.30;;;;;;5021066;28;20053;-46
2022/12/27 02:39:18;;;;;;;7.53;1.27;;;8.30;55.30;;;;;;5017711;28;20405;-50
2022/12/27 02:53:06;;;;;;;3.78;1.27;;;8.30;55.30;;;;;;5028155;28;20053;-48
2022/12/27 02:58:57;;;;;;;2.70;0.90;;;8.30;55.30;;;;;;5026156;28;20268;-49
2022/12/27 03:04:40;;;;;;;3.20;0.90;;;8.30;55.30;;;;;;5031599;28;20061;-46
2022/12/27 03:07:26;;;;;;;5.40;1.20;;;8.30;55.30;;;;;;5024921;28;20057;-48
2022/12/27 03:15:57;;;;;;;4.63;1.33;;;8.30;55.20;;;;;;5031298;28;20105;-47
2022/12/27 03:18:51;;;;;;;5.28;1.15;;;8.30;55.20;;;;;;5024891;28;20060;-49
2022/12/27 03:26:58;;;;;;;4.15;0.90;;;8.20;55.20;;;;;;5024799;28;20536;-47
2022/12/27 03:35:05;;;;;;;2.88;1.17;;;8.20;55.40;;;;;;5030249;28;20053;-46
2022/12/27 03:40:33;;;;;;;3.22;1.08;;;8.20;55.40;;;;;;5028810;28;20049;-46
2022/12/27 03:43:09;;;;;;;9.32;1.40;;;8.20;55.40;;;;;;5022584;28;20505;-48
2022/12/27 03:48:46;;;;;;;7.45;1.25;;;8.10;55.40;;;;;;5029851;28;20772;-47
2022/12/27 03:51:20;;;;;;;6.03;1.55;;;8.10;55.40;;;;;;5024165;28;20060;-49
2022/12/27 03:53:50;;;;;;;5.53;1.10;;;8.10;55.40;;;;;;5023262;28;20053;-50
2022/12/27 03:56:18;;;;;;;4.88;1.20;;;8.10;55.40;;;;;;5024868;28;20540;-48
2022/12/27 03:58:45;;;;;;;3.72;1.20;;;8.10;55.50;;;;;;5021705;28;20068;-52
2022/12/27 04:01:13;;;;;;;3.75;1.15;;;8.00;55.50;;;;;;5024370;28;20509;-50
2022/12/27 04:03:40;;;;;;;5.50;1.00;;;8.00;55.60;;;;;;5024103;28;20058;-49
2022/12/27 04:06:07;;;;;;;4.15;1.00;;;8.00;55.60;;;;;;5024149;28;20057;-49
2022/12/27 04:36:04;;;;;;;6.22;1.52;;;7.90;55.90;;;;;;5029093;28;20624;-50
2022/12/27 04:38:31;;;;;;;8.73;1.40;;;7.90;56.00;;;;;;5022226;28;20390;-50
2022/12/27 04:54:58;;;;;;;4.90;1.08;;;7.90;56.50;;;;;;5027586;28;20056;-50
2022/12/27 04:57:27;;;;;;;3.92;1.30;;;7.90;56.50;;;;;;5020377;28;20080;-45
2022/12/27 05:02:40;;;;;;;5.28;1.10;;;7.90;56.70;;;;;;5027364;28;20049;-47
2022/12/27 05:05:09;;;;;;;6.28;1.58;;;7.90;56.70;;;;;;5021282;28;20061;-48
2022/12/27 05:15:56;;;;;;;5.72;1.15;;;8.00;56.90;;;;;;5027670;28;20049;-49
2022/12/27 05:18:24;;;;;;;4.95;0.98;;;8.00;56.90;;;;;;5021605;28;20056;-49
2022/12/27 05:20:51;;;;;;;5.63;1.42;;;8.00;56.90;;;;;;5022465;28;20049;-50
2022/12/27 05:26:03;;;;;;;5.85;1.33;;;8.10;57.00;;;;;;5025779;28;20049;-48
2022/12/27 05:28:32;;;;;;;9.95;1.67;;;8.10;57.00;;;;;;5020775;28;20049;-51
2022/12/27 05:31:02;;;;;;;4.85;1.40;;;8.10;56.90;;;;;;5022136;28;20054;-46
2022/12/27 05:33:31;;;;;;;7.32;1.55;;;8.10;56.90;;;;;;5022439;28;20079;-47
2022/12/27 05:36:00;;;;;;;6.03;1.63;;;8.10;56.90;;;;;;5021193;28;20053;-48
2022/12/27 05:38:27;;;;;;;7.55;1.33;;;8.10;57.00;;;;;;5021171;28;20061;-46
2022/12/27 05:40:58;;;;;;;7.30;1.60;;;8.10;56.90;;;;;;5021347;28;20056;-44
2022/12/27 05:43:25;;;;;;;8.70;1.88;;;8.10;57.30;;;;;;5021033;28;20398;-48
2022/12/27 05:45:54;;;;;;;6.90;1.58;;;8.10;56.80;;;;;;5021921;28;20063;-51
2022/12/27 05:48:23;;;;;;;4.03;1.25;;;8.20;56.80;;;;;;5021670;28;20061;-47
2022/12/27 05:50:50;;;;;;;5.28;1.40;;;8.20;56.80;;;;;;5020770;28;20052;-49
2022/12/27 05:53:17;;;;;;;4.05;1.38;;;8.20;56.70;;;;;;5021273;28;20052;-47
2022/12/27 05:55:44;;;;;;;7.95;1.60;;;8.20;56.60;;;;;;5019760;28;20053;-45
2022/12/27 05:58:12;;;;;;;6.95;1.63;;;8.20;56.70;;;;;;5020960;28;20060;-45
2022/12/27 06:00:39;;;;;;;4.38;1.67;;;8.20;56.80;;;;;;5022700;28;20057;-48
2022/12/27 06:03:07;;;;;;;6.45;1.80;;;8.20;56.60;;;;;;5022094;28;20049;-48
2022/12/27 06:05:35;;;;;;;4.65;1.38;;;8.20;56.50;;;;;;5021598;28;20056;-46
2022/12/27 06:08:02;;;;;;;10.10;1.38;;;8.20;56.50;;;;;;5021689;28;20072;-45
2022/12/27 06:10:29;;;;;;;5.63;1.20;;;8.30;56.60;;;;;;5021639;28;20058;-48
2022/12/27 06:12:59;;;;;;;7.78;1.50;;;8.30;56.70;;;;;;5020780;28;20470;-50
2022/12/27 06:15:26;;;;;;;9.07;1.42;;;8.30;56.50;;;;;;5008375;28;20041;-44
2022/12/27 06:17:54;;;;;;;6.72;1.30;;;8.30;56.50;;;;;;5022287;28;20056;-48
2022/12/27 06:20:22;;;;;;;7.30;1.83;;;8.30;56.40;;;;;;5021518;28;20481;-47
2022/12/27 06:22:49;;;;;;;6.97;1.30;;;8.30;56.30;;;;;;5022363;28;20064;-46
2022/12/27 06:25:17;;;;;;;4.57;1.20;;;8.30;56.30;;;;;;5019473;28;20053;-50
2022/12/27 06:27:46;;;;;;;5.10;1.00;;;8.30;56.20;;;;;;5021214;28;20076;-48
2022/12/27 06:30:14;;;;;;;6.78;1.30;;;8.30;56.20;;;;;;5022516;28;20416;-48
2022/12/27 06:32:42;;;;;;;11.50;1.30;;;8.30;56.20;;;;;;5023953;28;20057;-47
2022/12/27 06:35:11;;;;;;;8.55;1.30;;;8.30;56.70;;;;;;5022714;28;20064;-47
2022/12/27 06:37:40;;;;;;;3.05;0.70;;;8.40;56.20;;;;;;5023362;28;20060;-48
2022/12/27 06:40:09;;;;;;;6.40;1.40;;;8.30;56.10;;;;;;5019678;28;20053;-50
2022/12/27 06:42:37;;;;;;;10.48;1.30;;;8.40;56.10;;;;;;5021459;28;20410;-48
2022/12/27 06:45:06;;;;;;;4.32;0.80;;;8.40;56.10;;;;;;5024555;28;20060;-45
2022/12/27 06:47:33;;;;;;;3.88;1.27;;;8.40;56.10;;;;;;5025665;28;20057;-47
2022/12/27 06:50:01;;;;;;;20.58;9.60;;;8.40;56.00;;;;;;5021783;28;20061;-51
2022/12/27 06:52:28;;;;;;;17.38;8.13;;;8.40;56.00;;;;;;5024539;28;20057;-45
2022/12/27 06:54:57;;;;;;;15.05;7.05;;;8.40;56.00;;;;;;5020544;28;20049;-46
2022/12/27 06:57:24;;;;;;;14.73;7.53;;;8.40;56.00;;;;;;5022571;28;20714;-47
2022/12/27 06:59:51;;;;;;;7.85;3.30;;;8.40;56.00;;;;;;5025398;28;20046;-46
2022/12/27 07:02:19;;;;;;;9.82;2.50;;;8.40;56.00;;;;;;5023335;28;20053;-45
2022/12/27 07:04:46;;;;;;;7.78;2.33;;;8.40;56.10;;;;;;5022954;28;20061;-46
2022/12/27 07:07:13;;;;;;;8.57;1.50;;;8.40;56.10;;;;;;5025505;28;20065;-47
2022/12/27 07:09:40;;;;;;;8.43;1.75;;;8.40;56.10;;;;;;5023344;28;20058;-48
2022/12/27 07:12:09;;;;;;;6.15;1.55;;;8.40;56.10;;;;;;5019996;28;20053;-48
2022/12/27 07:14:36;;;;;;;5.38;1.80;;;8.40;56.10;;;;;;5024750;28;20052;-47
2022/12/27 07:17:05;;;;;;;8.68;1.30;;;8.40;56.20;;;;;;5025644;28;20053;-47
2022/12/27 07:19:33;;;;;;;4.43;1.50;;;8.50;56.20;;;;;;5024669;28;20061;-49
2022/12/27 07:22:00;;;;;;;9.98;2.60;;;8.50;56.30;;;;;;5023566;28;20053;-51
2022/12/27 07:24:29;;;;;;;8.23;3.05;;;8.50;56.20;;;;;;5017583;28;20045;-47
2022/12/27 07:26:56;;;;;;;4.80;2.15;;;8.50;56.10;;;;;;5024273;28;20056;-48
2022/12/27 07:29:26;;;;;;;6.95;1.98;;;8.50;56.10;;;;;;5024280;28;20420;-49
2022/12/27 07:31:53;;;;;;;9.57;1.50;;;8.50;56.10;;;;;;5024867;28;20061;-49
2022/12/27 07:34:21;;;;;;;6.10;1.30;;;8.50;56.10;;;;;;5024433;28;20517;-49
2022/12/27 07:36:48;;;;;;;8.27;1.50;;;8.50;56.10;;;;;;5024712;28;20064;-48
2022/12/27 07:39:16;;;;;;;6.25;1.10;;;8.50;56.20;;;;;;5023418;28;20053;-47
2022/12/27 07:41:43;;;;;;;4.13;1.13;;;8.50;56.10;;;;;;5022768;28;20072;-47
2022/12/27 07:44:11;;;;;;;4.57;1.00;;;8.50;56.10;;;;;;5021278;28;20419;-47
2022/12/27 07:46:39;;;;;;;3.53;1.10;;;8.50;56.20;;;;;;5024919;28;20088;-45
2022/12/27 07:49:10;;;;;;;8.30;1.63;;;8.50;56.20;;;;;;5023092;28;20065;-51
2022/12/27 07:51:37;;;;;;;3.72;1.33;;;8.50;56.30;;;;;;5024135;28;20061;-48
2022/12/27 07:54:05;;;;;;;6.97;1.35;;;8.50;56.30;;;;;;5022304;28;20060;-46
2022/12/27 07:56:32;;;;;;;10.80;1.73;;;8.60;56.40;;;;;;5023968;28;20056;-45
2022/12/27 07:59:00;;;;;;;7.10;1.50;;;8.50;56.40;;;;;;5024375;28;20054;-44
2022/12/27 08:02:02;;;;;;;8.32;1.48;;;8.60;56.40;;;;;;5023539;28;20053;-46
2022/12/27 08:04:19;;;;;;;7.95;1.48;;;8.60;56.60;;;;;;5023815;28;20064;-44
2022/12/27 08:06:46;;;;;;;10.68;1.77;;;8.60;56.60;;;;;;5024627;28;20057;-49
2022/12/27 08:09:17;;;;;;;3.72;1.40;;;8.60;56.50;;;;;;5021840;28;20409;-49
2022/12/27 08:11:45;;;;;;;8.15;1.50;;;8.60;56.60;;;;;;5023038;28;20064;-50
2022/12/27 08:14:12;;;;;;;6.35;1.58;;;8.60;56.60;;;;;;5024561;28;20054;-49
2022/12/27 08:16:39;;;;;;;4.60;1.50;;;8.60;56.50;;;;;;5023800;28;20053;-49
2022/12/27 08:19:06;;;;;;;10.10;1.35;;;8.60;56.40;;;;;;5023423;28;20056;-48
2022/12/27 08:21:35;;;;;;;5.40;1.48;;;8.60;56.40;;;;;;5023976;28;20402;-45
2022/12/27 08:24:02;;;;;;;7.25;1.48;;;8.60;56.40;;;;;;5020411;28;20065;-47
2022/12/27 08:26:29;;;;;;;7.68;1.67;;;8.60;56.40;;;;;;5023022;28;20053;-47
2022/12/27 08:28:56;;;;;;;9.65;1.80;;;8.60;56.50;;;;;;5024365;28;20080;-48
2022/12/27 08:31:24;;;;;;;6.32;1.10;;;8.70;56.50;;;;;;5022693;28;20057;-48
2022/12/27 08:33:51;;;;;;;7.30;1.40;;;8.70;56.50;;;;;;5023034;28;20537;-49
2022/12/27 08:36:18;;;;;;;9.10;1.70;;;8.70;56.50;;;;;;5020069;28;20061;-45
2022/12/27 08:38:47;;;;;;;5.75;1.50;;;8.70;56.40;;;;;;5021998;28;20572;-46
2022/12/27 08:41:14;;;;;;;2.92;1.00;;;8.70;56.40;;;;;;5023395;28;20060;-50
2022/12/27 08:43:41;;;;;;;8.13;1.80;;;8.70;56.50;;;;;;5023727;28;20053;-50
2022/12/27 08:46:09;;;;;;;8.23;1.27;;;8.70;56.50;;;;;;5020887;28;20065;-47
2022/12/27 08:48:36;;;;;;;6.57;1.20;;;8.70;56.40;;;;;;5021333;28;20093;-45
2022/12/27 08:51:04;;;;;;;7.10;1.77;;;8.70;56.50;;;;;;5021624;28;20057;-48
2022/12/27 08:53:32;;;;;;;6.18;1.55;;;8.70;56.50;;;;;;5019810;28;20072;-48
2022/12/27 08:56:00;;;;;;;6.55;1.35;;;8.70;56.60;;;;;;5023499;28;20049;-46
2022/12/27 08:58:27;;;;;;;10.15;1.55;;;8.70;56.60;;;;;;5021284;28;20049;-47
2022/12/27 09:00:55;;;;;;;9.98;2.28;;;8.70;56.80;;;;;;5023411;28;20053;-50
2022/12/27 09:03:22;;;;;;;10.93;1.58;;;8.80;56.70;;;;;;5023383;28;20064;-48
2022/12/27 09:05:49;;;;;;;8.88;1.80;;;8.80;56.80;;;;;;5022427;28;20054;-47
2022/12/27 09:08:16;;;;;;;6.70;1.90;;;8.80;57.00;;;;;;5023334;28;20061;-44
2022/12/27 09:10:44;;;;;;;8.98;1.98;;;8.80;57.10;;;;;;5022123;28;20061;-47
2022/12/27 09:13:12;;;;;;;7.68;1.80;;;8.80;57.10;;;;;;5022584;28;20057;-44
2022/12/27 09:15:46;;;;;;;11.70;1.70;;;8.80;57.20;;;;;;5022395;28;20054;-49
2022/12/27 09:18:13;;;;;;;7.18;1.70;;;8.90;57.20;;;;;;5022834;28;20413;-47
2022/12/27 09:20:40;;;;;;;9.90;1.95;;;8.90;57.20;;;;;;5022267;28;20064;-47
2022/12/27 09:23:08;;;;;;;6.25;1.60;;;8.90;57.20;;;;;;5021820;28;20449;-48
2022/12/27 09:25:35;;;;;;;7.38;1.67;;;9.00;57.30;;;;;;5021564;28;20058;-46
2022/12/27 09:28:02;;;;;;;8.80;1.67;;;9.00;57.30;;;;;;5022194;28;20060;-47
2022/12/27 09:30:31;;;;;;;10.88;1.77;;;9.00;57.40;;;;;;5022405;28;20053;-45
2022/12/27 09:32:58;;;;;;;8.00;1.95;;;9.00;57.50;;;;;;5021734;28;20701;-47
2022/12/27 09:35:25;;;;;;;8.38;1.70;;;9.10;57.60;;;;;;5022994;28;20049;-47
2022/12/27 09:37:53;;;;;;;6.40;1.60;;;9.10;57.50;;;;;;5022837;28;20057;-46
2022/12/27 09:40:21;;;;;;;7.18;2.33;;;9.10;57.70;;;;;;5020994;28;20053;-46
2022/12/27 09:42:56;;;;;;;9.27;2.40;;;9.20;57.60;;;;;;5022473;28;20076;-44
2022/12/27 09:45:30;;;;;;;7.90;2.15;;;9.20;57.40;;;;;;5022087;28;20529;-43
2022/12/27 09:48:03;;;;;;;14.52;2.30;;;9.20;57.40;;;;;;5022335;28;20057;-44
2022/12/27 09:50:33;;;;;;;7.13;1.60;;;9.30;57.30;;;;;;5022704;28;20045;-49
2022/12/27 09:53:05;;;;;;;4.85;1.60;;;9.30;57.30;;;;;;5022517;28;20061;-47
2022/12/27 09:55:41;;;;;;;8.70;2.00;;;9.30;57.30;;;;;;5019534;28;20508;-48
2022/12/27 09:58:28;;;;;;;7.53;1.80;;;9.40;57.20;;;;;;5021894;28;20497;-45
2022/12/27 10:00:55;;;;;;;6.18;1.45;;;9.40;57.00;;;;;;5022114;28;20061;-45
2022/12/27 10:03:26;;;;;;;10.68;2.33;;;9.40;57.00;;;;;;5022352;28;20397;-45
2022/12/27 10:05:59;;;;;;;6.80;1.80;;;9.40;57.00;;;;;;5022370;28;20052;-45
2022/12/27 10:08:42;;;;;;;7.18;1.83;;;9.50;57.00;;;;;;5024381;28;20061;-45
2022/12/27 10:14:04;;;;;;;7.07;1.80;;;9.60;57.20;;;;;;5025815;28;20049;-45
2022/12/27 10:16:39;;;;;;;8.27;1.85;;;9.60;57.40;;;;;;5025575;28;20056;-46
2022/12/27 10:19:21;;;;;;;6.60;1.85;;;9.60;57.30;;;;;;5026479;28;20500;-47
2022/12/27 10:22:02;;;;;;;10.68;1.90;;;9.70;57.20;;;;;;5025420;28;20064;-45
2022/12/27 10:24:37;;;;;;;6.22;2.00;;;9.70;57.00;;;;;;5024529;28;20049;-48
2022/12/27 10:27:13;;;;;;;8.48;1.70;;;9.80;57.10;;;;;;5024981;28;20084;-47
2022/12/27 10:29:40;;;;;;;7.45;1.50;;;9.80;57.10;;;;;;5025334;28;20053;-44
2022/12/27 10:32:11;;;;;;;6.75;1.70;;;9.80;57.10;;;;;;5026654;28;20062;-48
2022/12/27 10:34:40;;;;;;;8.18;1.80;;;9.90;57.20;;;;;;5024907;28;20417;-46
2022/12/27 10:37:08;;;;;;;5.63;1.60;;;9.90;57.00;;;;;;5025341;28;20060;-49
2022/12/27 10:39:37;;;;;;;9.48;1.80;;;9.90;56.90;;;;;;5022823;28;20064;-45
2022/12/27 10:42:13;;;;;;;9.07;1.92;;;10.00;56.80;;;;;;5021763;28;20057;-47
2022/12/27 10:44:40;;;;;;;6.10;1.42;;;10.00;56.60;;;;;;5026277;28;20060;-47
2022/12/27 10:47:08;;;;;;;15.13;2.30;;;10.00;56.60;;;;;;5024798;28;20644;-45
2022/12/27 10:49:37;;;;;;;6.68;1.63;;;10.10;56.60;;;;;;5021918;28;20064;-44
2022/12/27 10:52:15;;;;;;;10.45;2.95;;;10.10;56.50;;;;;;5023894;28;20083;-44
2022/12/27 10:54:52;;;;;;;8.38;1.80;;;10.10;56.40;;;;;;5023445;28;20057;-45
2022/12/27 10:57:26;;;;;;;8.25;1.42;;;10.10;56.20;;;;;;5022611;28;20505;-47
2022/12/27 11:00:15;;;;;;;8.30;1.70;;;10.20;56.20;;;;;;5024891;28;20498;-48
2022/12/27 11:02:53;;;;;;;8.23;2.35;;;10.20;56.10;;;;;;5025784;28;20494;-49
2022/12/27 11:05:23;;;;;;;7.00;1.55;;;10.20;56.20;;;;;;5024023;28;20052;-44
2022/12/27 11:07:51;;;;;;;6.63;1.58;;;10.30;56.40;;;;;;5023270;28;20057;-46
2022/12/27 11:10:21;;;;;;;6.25;1.85;;;10.30;56.40;;;;;;5023853;28;20053;-46
2022/12/27 11:13:00;;;;;;;5.30;2.03;;;10.30;56.40;;;;;;5023749;28;20057;-47
2022/12/27 11:15:30;;;;;;;6.07;1.65;;;10.30;56.40;;;;;;5024634;28;20056;-44
2022/12/27 11:18:00;;;;;;;10.70;4.50;;;10.30;56.40;;;;;;5024517;28;20060;-47
2022/12/27 11:20:30;;;;;;;6.30;1.80;;;10.40;56.50;;;;;;5023890;28;20053;-47
2022/12/27 11:23:02;;;;;;;3.05;1.25;;;10.40;56.40;;;;;;5023616;28;20049;-47
2022/12/27 11:25:30;;;;;;;6.97;1.60;;;10.40;56.30;;;;;;5018692;28;20045;-45
2022/12/27 11:28:01;;;;;;;7.88;1.73;;;10.40;56.40;;;;;;5024127;28;20046;-47
2022/12/27 11:30:32;;;;;;;8.25;1.65;;;10.50;56.40;;;;;;5024812;28;20064;-44
2022/12/27 11:33:04;;;;;;;8.25;1.80;;;10.50;56.40;;;;;;5021606;28;20056;-44
2022/12/27 11:35:36;;;;;;;8.05;1.70;;;10.60;56.20;;;;;;5023011;28;20057;-46
2022/12/27 11:38:05;;;;;;;6.25;2.30;;;10.60;56.20;;;;;;5023066;28;20409;-46
2022/12/27 11:40:34;;;;;;;11.35;1.70;;;10.60;56.20;;;;;;5019951;28;20053;-45
2022/12/27 11:43:09;;;;;;;6.22;1.45;;;10.70;56.30;;;;;;5020471;28;20053;-49
2022/12/27 11:45:40;;;;;;;5.53;1.42;;;10.70;56.10;;;;;;5021184;28;20056;-45
2022/12/27 11:48:23;;;;;;;7.72;1.30;;;10.70;56.00;;;;;;5021923;28;20058;-46
2022/12/27 11:51:01;;;;;;;5.22;1.38;;;10.80;56.00;;;;;;5021631;28;20489;-44
2022/12/27 11:53:56;;;;;;;7.07;1.48;;;10.80;55.80;;;;;;5021019;28;20065;-47
2022/12/27 11:56:27;;;;;;;7.45;1.38;;;10.80;55.60;;;;;;5022671;28;20057;-47
2022/12/27 11:59:23;;;;;;;6.50;1.85;;;10.90;55.70;;;;;;5022719;28;20057;-46
2022/12/27 12:02:29;;;;;;;5.75;1.17;;;10.90;55.50;;;;;;5024466;28;20060;-45
2022/12/27 12:05:29;;;;;;;5.80;1.35;;;10.90;55.60;;;;;;5023752;28;20057;-42
2022/12/27 12:08:16;;;;;;;3.67;1.10;;;10.90;55.50;;;;;;5020554;28;20521;-44
2022/12/27 12:10:52;;;;;;;6.25;1.25;;;10.90;55.40;;;;;;5022645;28;20061;-46
2022/12/27 12:13:50;;;;;;;2.85;1.05;;;11.00;55.20;;;;;;5022321;28;20442;-46
2022/12/27 12:16:53;;;;;;;5.15;1.20;;;11.00;55.20;;;;;;5023920;28;20060;-47
2022/12/27 12:19:35;;;;;;;3.08;1.00;;;11.00;55.30;;;;;;5023470;28;20053;-46
2022/12/27 12:22:16;;;;;;;4.57;1.23;;;11.10;55.20;;;;;;5023638;28;20053;-46
2022/12/27 12:25:15;;;;;;;4.78;2.13;;;11.00;55.10;;;;;;5021631;28;20056;-50
2022/12/27 12:28:00;;;;;;;7.65;1.42;;;11.10;55.20;;;;;;5022528;28;20489;-45
2022/12/27 12:30:45;;;;;;;5.00;1.42;;;11.10;55.20;;;;;;5022293;28;20057;-46
2022/12/27 12:33:22;;;;;;;;;;;11.10;55.20;;;;;;5024302;28;20053;-43
2022/12/27 12:36:03;;;;;;;2.05;1.05;;;11.10;55.20;;;;;;5023873;28;20258;-46
2022/12/27 12:38:37;;;;;;;5.53;1.73;;;11.10;55.00;;;;;;5018889;28;20053;-46
2022/12/27 12:41:31;;;;;;;8.38;1.65;;;11.10;54.90;;;;;;5023476;28;20060;-43
2022/12/27 12:44:28;;;;;;;4.40;1.38;;;11.10;54.70;;;;;;5022185;28;20421;-48
2022/12/27 12:47:08;;;;;;;6.30;1.67;;;11.20;54.70;;;;;;5023199;28;20489;-45
2022/12/27 12:49:55;;;;;;;5.60;1.67;;;11.10;54.70;;;;;;5022078;28;20064;-49
2022/12/27 12:52:37;;;;;;;5.82;1.45;;;11.20;54.60;;;;;;5023395;28;20058;-46
2022/12/27 12:55:22;;;;;;;7.43;1.60;;;11.10;54.40;;;;;;5021452;28;20053;-45
2022/12/27 12:57:58;;;;;;;8.73;2.05;;;11.20;54.50;;;;;;5021837;28;20049;-48
2022/12/27 13:00:39;;;;;;;5.25;1.60;;;11.20;54.60;;;;;;5022914;28;20056;-47
2022/12/27 13:03:51;;;;;;;7.25;1.50;;;11.20;54.50;;;;;;5021799;28;20505;-47
2022/12/27 13:06:39;;;;;;;5.90;1.58;;;11.20;54.30;;;;;;5021844;28;20052;-46
2022/12/27 13:09:19;;;;;;;8.55;1.80;;;11.20;54.60;;;;;;5021646;28;20073;-43
2022/12/27 13:11:54;;;;;;;5.78;1.60;;;11.20;54.40;;;;;;5021705;28;20057;-48
2022/12/27 13:14:37;;;;;;;4.55;1.25;;;11.20;54.30;;;;;;5019062;28;20053;-47
2022/12/27 13:17:15;;;;;;;6.65;1.42;;;11.20;54.20;;;;;;5021984;28;20057;-43
2022/12/27 13:19:55;;;;;;;9.38;1.52;;;11.20;54.10;;;;;;5019120;28;20049;-45
2022/12/27 13:22:33;;;;;;;6.57;1.20;;;11.30;54.10;;;;;;5022973;28;20058;-45
2022/12/27 13:25:10;;;;;;;4.72;1.40;;;11.30;54.00;;;;;;5019453;28;20053;-47
2022/12/27 13:27:45;;;;;;;5.25;1.42;;;11.30;54.00;;;;;;5018009;28;20056;-49
2022/12/27 13:30:19;;;;;;;12.55;1.98;;;11.30;53.90;;;;;;5022282;28;20057;-45
2022/12/27 13:33:02;;;;;;;8.93;2.38;;;11.30;53.80;;;;;;5020992;28;20049;-45
2022/12/27 13:35:42;;;;;;;10.43;1.77;;;11.30;53.70;;;;;;5019699;28;20503;-47
2022/12/27 13:38:26;;;;;;;4.72;1.30;;;11.30;53.70;;;;;;5020951;28;20496;-45
2022/12/27 13:41:05;;;;;;;;;;;11.30;53.60;;;;;;5020176;28;20066;-45
2022/12/27 13:43:49;;;;;;;6.35;1.60;;;11.40;53.70;;;;;;5019869;28;20401;-44
2022/12/27 13:46:40;;;;;;;5.25;1.30;;;11.40;53.30;;;;;;5018453;28;20061;-46
2022/12/27 13:49:36;;;;;;;6.70;1.45;;;11.40;53.30;;;;;;5019975;28;20064;-48
2022/12/27 13:52:16;;;;;;;5.45;1.70;;;11.40;53.20;;;;;;4971196;28;20517;-46
2022/12/27 13:55:05;;;;;;;11.23;2.30;;;11.30;53.10;;;;;;5018394;28;20420;-48
2022/12/27 13:57:58;;;;;;;5.05;1.83;;;11.30;53.10;;;;;;5020732;28;20045;-45
2022/12/27 14:00:31;;;;;;;7.78;1.80;;;11.40;53.10;;;;;;4985593;28;21501;-47
2022/12/27 14:03:31;;;;;;;6.57;1.45;;;11.40;53.20;;;;;;5021412;28;20102;-46
2022/12/27 14:06:47;;;;;;;4.35;1.52;;;11.30;53.10;;;;;;5011329;28;20498;-46
2022/12/27 14:09:30;;;;;;;8.80;1.83;;;11.30;53.00;;;;;;5019336;28;20065;-47
2022/12/27 14:12:26;;;;;;;5.70;1.45;;;11.30;52.90;;;;;;5021515;28;20080;-48
2022/12/27 14:14:55;;;;;;;4.55;1.38;;;11.30;53.10;;;;;;5022444;28;20474;-47
2022/12/27 14:17:32;;;;;;;8.02;2.20;;;11.40;53.10;;;;;;5019086;28;20060;-44
2022/12/27 14:20:24;;;;;;;7.72;1.83;;;11.30;52.80;;;;;;5020667;28;20049;-50
2022/12/27 14:23:17;;;;;;;6.18;1.45;;;11.30;52.70;;;;;;5018107;28;20060;-48
2022/12/27 14:26:11;;;;;;;4.28;1.17;;;11.40;52.80;;;;;;5020494;28;20053;-45
2022/12/27 14:29:08;;;;;;;6.15;1.50;;;11.30;52.70;;;;;;5018123;28;20064;-47
2022/12/27 14:32:15;;;;;;;4.60;1.30;;;11.40;52.70;;;;;;5020250;28;20052;-48
2022/12/27 14:35:21;;;;;;;30.27;13.48;;;11.30;52.70;;;;;;5019976;28;20616;-45
2022/12/27 14:38:18;;;;;;;13.18;5.22;;;11.30;52.50;;;;;;4970477;28;20056;-49
2022/12/27 14:41:25;;;;;;;7.10;2.42;;;11.40;52.90;;;;;;5000846;28;20056;-47
2022/12/27 14:44:31;;;;;;;6.43;1.55;;;11.40;52.40;;;;;;5020208;28;20064;-48
2022/12/27 14:47:27;;;;;;;6.80;2.00;;;11.40;52.40;;;;;;5018866;28;20050;-45
2022/12/27 14:50:24;;;;;;;6.07;1.50;;;11.30;52.30;;;;;;5019619;28;20049;-47
2022/12/27 14:53:31;;;;;;;3.38;1.05;;;11.30;52.30;;;;;;5020687;28;20053;-47
2022/12/27 14:56:11;;;;;;;5.47;1.45;;;11.30;52.20;;;;;;5021856;28;20516;-48
2022/12/27 14:58:57;;;;;;;12.57;2.03;;;11.30;52.20;;;;;;5022768;28;20061;-44
2022/12/27 15:01:39;;;;;;;6.13;1.30;;;11.30;52.30;;;;;;5022615;28;20507;-47
2022/12/27 15:04:36;;;;;;;3.50;1.02;;;11.30;52.10;;;;;;5023418;28;20049;-45
2022/12/27 15:07:21;;;;;;;9.35;1.52;;;11.30;52.00;;;;;;5020310;28;20053;-45
2022/12/27 15:09:57;;;;;;;8.38;1.65;;;11.30;52.00;;;;;;5019134;28;20053;-45
2022/12/27 15:12:34;;;;;;;4.60;1.40;;;11.30;52.00;;;;;;5022199;28;20068;-45